Terminal Aerodrome Forecast
Issued by NWS

Home | Current Version | Previous Version | Text Only | Print | Product List | Glossary On
Versions: 1 2 3 4 5 6 7 8 9 10 11 12 13 14 15 16 17 18 19 20 21 22 23 24 25 26 27 28
988
FTUS43 KDLH 300505 AAB
TAFHIB
TAF AMD
KHIB 300505Z 3005/3024 26004KT P6SM FEW050
      TEMPO 3005/3006 1 1/2SM BR
     FM301500 27010G17KT P6SM SCT070=

USA.gov is the U.S. government's official web portal to all federal, state and local government web resources and services.